createdAt,value
2022-08-16T00:02:00.038Z,99465.02
2022-08-16T00:04:31.894Z,99460.38
2022-08-16T00:07:04.530Z,99464.29
2022-08-16T00:09:36.295Z,99464.40
2022-08-16T00:12:09.148Z,99461.76
2022-08-16T00:14:40.951Z,99464.30
2022-08-16T00:17:18.505Z,99465.74
2022-08-16T00:19:53.711Z,99467.58
2022-08-16T00:22:27.895Z,99470.61
2022-08-16T00:24:59.449Z,99473.09
2022-08-16T00:27:30.858Z,99468.32
2022-08-16T00:30:09.364Z,99469.29
2022-08-16T00:32:53.550Z,99468.91
2022-08-16T00:35:31.289Z,99469.98
2022-08-16T00:38:40.482Z,99466.20
2022-08-16T00:40:58.849Z,99461.04
2022-08-16T00:43:43.175Z,99462.52
2022-08-16T00:46:33.118Z,99467.09
2022-08-16T00:49:17.631Z,99466.71
2022-08-16T00:51:53.764Z,99460.76
2022-08-16T00:54:29.448Z,99464.27
2022-08-16T00:57:03.907Z,99467.38
2022-08-16T00:59:49.306Z,99470.75
2022-08-16T01:02:31.209Z,99471.52
2022-08-16T01:05:11.291Z,99465.02
2022-08-16T01:07:52.201Z,99465.15
2022-08-16T01:10:31.885Z,99462.20
2022-08-16T01:13:08.746Z,99467.61
2022-08-16T01:15:46.955Z,99467.80
2022-08-16T01:18:39.426Z,99468.27
2022-08-16T01:21:33.882Z,99467.58
2022-08-16T01:24:52.798Z,99464.10
2022-08-16T01:27:31.329Z,99465.91
2022-08-16T01:30:20.149Z,99460.55
2022-08-16T01:33:02.832Z,99460.27
2022-08-16T01:35:52.679Z,99456.87
2022-08-16T01:38:28.797Z,99444.13
2022-08-16T01:41:02.631Z,99442.84
2022-08-16T01:43:36.090Z,99442.60
2022-08-16T01:46:37.933Z,99443.17
2022-08-16T01:49:13.392Z,99438.02
2022-08-16T01:51:45.247Z,99435.46
2022-08-16T01:54:16.710Z,99436.47
2022-08-16T01:57:02.591Z,99441.27
2022-08-16T01:59:34.909Z,99435.29
2022-08-16T02:02:27.284Z,99437.48
2022-08-16T02:05:00.468Z,99438.29
2022-08-16T02:07:31.997Z,99438.71
2022-08-16T02:10:03.729Z,99438.62
2022-08-16T02:12:45.839Z,99437.91
2022-08-16T02:15:27.335Z,99434.16
2022-08-16T02:18:01.143Z,99432.34
2022-08-16T02:20:35.482Z,99429.84
2022-08-16T02:23:11.523Z,99425.70
2022-08-16T02:25:51.092Z,99421.36
2022-08-16T02:28:26.837Z,99422.15
2022-08-16T02:31:01.003Z,99420.54
2022-08-16T02:33:43.548Z,99420.61
2022-08-16T02:36:48.237Z,99421.98
2022-08-16T02:39:10.186Z,99431.36
2022-08-16T02:41:43.207Z,99431.35
2022-08-16T02:44:15.301Z,99427.46
2022-08-16T02:46:50.571Z,99426.00
2022-08-16T02:49:58.265Z,99423.11
2022-08-16T02:52:24.466Z,99416.59
2022-08-16T02:55:01.208Z,99414.77
2022-08-16T02:57:33.684Z,99410.20
2022-08-16T03:00:34.173Z,99408.75
2022-08-16T03:03:01.596Z,99401.05
2022-08-16T03:05:35.240Z,99403.55
2022-08-16T03:08:07.209Z,99403.41
2022-08-16T03:10:59.423Z,99402.77
2022-08-16T03:13:31.148Z,99402.50
2022-08-16T03:16:32.755Z,99401.86
2022-08-16T03:19:02.534Z,99404.56
2022-08-16T03:21:38.308Z,99404.44
2022-08-16T03:24:29.377Z,99408.67
2022-08-16T03:27:07.494Z,99408.48
2022-08-16T03:29:54.261Z,99415.30
2022-08-16T03:32:30.282Z,99419.67
2022-08-16T03:35:01.824Z,99421.52
2022-08-16T03:37:33.421Z,99421.59
2022-08-16T03:40:33.048Z,99426.41
2022-08-16T03:43:20.459Z,99428.59
2022-08-16T03:45:53.889Z,99435.06
2022-08-16T03:48:39.601Z,99437.08
2022-08-16T03:51:13.525Z,99444.81
2022-08-16T03:53:45.661Z,99443.73
2022-08-16T03:56:32.771Z,99443.27
2022-08-16T03:59:05.474Z,99444.80
2022-08-16T04:01:37.182Z,99445.41
2022-08-16T04:04:10.036Z,99443.89
2022-08-16T04:06:49.400Z,99439.05
2022-08-16T04:09:22.338Z,99444.35
2022-08-16T04:11:54.658Z,99448.19
2022-08-16T04:14:32.770Z,99451.45
2022-08-16T04:17:05.157Z,99456.95
2022-08-16T04:19:37.587Z,99456.54
2022-08-16T04:22:17.634Z,99457.02
2022-08-16T04:24:55.061Z,99458.71
2022-08-16T04:27:29.040Z,99454.35
2022-08-16T04:30:03.854Z,99452.81
2022-08-16T04:32:36.223Z,99453.73
2022-08-16T04:35:15.397Z,99458.73
2022-08-16T04:37:53.901Z,99461.16
2022-08-16T04:40:27.351Z,99468.02
2022-08-16T04:43:00.927Z,99479.37
2022-08-16T04:45:36.142Z,99480.14
2022-08-16T04:48:08.969Z,99482.23
2022-08-16T04:50:43.483Z,99480.19
2022-08-16T04:53:15.837Z,99478.48
2022-08-16T04:55:47.881Z,99476.77
2022-08-16T04:58:43.751Z,99483.60
2022-08-16T05:01:18.275Z,99477.16
2022-08-16T05:04:01.011Z,99481.32
2022-08-16T05:06:42.399Z,99479.77
2022-08-16T05:09:17.090Z,99480.54
2022-08-16T05:11:49.264Z,99483.39
2022-08-16T05:14:42.081Z,99483.02
2022-08-16T05:17:12.776Z,99484.13
2022-08-16T05:19:46.759Z,99492.65
2022-08-16T05:22:30.389Z,99495.85
2022-08-16T05:25:02.404Z,99494.34
2022-08-16T05:27:42.929Z,99493.21
2022-08-16T05:30:35.178Z,99496.37
2022-08-16T05:33:16.642Z,99499.19
2022-08-16T05:35:54.840Z,99498.45
2022-08-16T05:38:33.334Z,99498.90
2022-08-16T05:41:10.806Z,99499.92
2022-08-16T05:43:47.775Z,99499.27
2022-08-16T05:46:28.578Z,99501.01
2022-08-16T05:49:05.794Z,99498.73
2022-08-16T05:51:41.661Z,99492.86
2022-08-16T05:54:25.050Z,99494.45
2022-08-16T05:56:59.879Z,99500.34
2022-08-16T05:59:31.454Z,99496.43
2022-08-16T06:02:03.317Z,99496.80
2022-08-16T06:04:37.915Z,99497.82
2022-08-16T06:07:26.108Z,99499.06
2022-08-16T06:09:59.821Z,99505.80
2022-08-16T06:12:32.512Z,99502.08
2022-08-16T06:15:09.690Z,99492.78
2022-08-16T06:17:43.915Z,99491.02
2022-08-16T06:20:23.989Z,99483.39
2022-08-16T06:23:04.088Z,99484.23
2022-08-16T06:25:53.107Z,99492.48
2022-08-16T06:28:36.443Z,99493.29
2022-08-16T06:31:12.211Z,99498.77
2022-08-16T06:33:44.866Z,99506.70
2022-08-16T06:36:17.130Z,99505.30
2022-08-16T06:38:56.525Z,99507.60
2022-08-16T06:41:28.448Z,99496.50
2022-08-16T06:44:20.684Z,99500.73
2022-08-16T06:46:52.853Z,99499.92
2022-08-16T06:49:24.326Z,99499.54
2022-08-16T06:51:55.525Z,99500.27
2022-08-16T06:54:34.996Z,99497.58
2022-08-16T06:57:11.751Z,99500.44
2022-08-16T06:59:52.284Z,99494.92
2022-08-16T07:02:32.961Z,99500.60
2022-08-16T07:05:14.873Z,99501.69
2022-08-16T07:07:51.007Z,99500.07
2022-08-16T07:10:25.541Z,99502.98
2022-08-16T07:13:04.059Z,99503.36
2022-08-16T07:15:50.575Z,99503.95
2022-08-16T07:18:24.326Z,99506.16
2022-08-16T07:21:01.838Z,99511.31
2022-08-16T07:23:38.699Z,99513.63
2022-08-16T07:26:25.399Z,99515.09
2022-08-16T07:28:59.579Z,99518.17
2022-08-16T07:31:37.583Z,99509.92
2022-08-16T07:34:11.951Z,99512.50
2022-08-16T07:36:45.137Z,99510.13
2022-08-16T07:39:25.072Z,99511.42
2022-08-16T07:42:06.815Z,99512.08
2022-08-16T07:44:50.627Z,99509.50
2022-08-16T07:47:31.269Z,99508.27
2022-08-16T07:50:07.336Z,99510.31
2022-08-16T07:52:39.171Z,99507.71
2022-08-16T07:55:15.466Z,99507.91
2022-08-16T07:58:03.323Z,99510.08
2022-08-16T08:00:35.397Z,99508.00
2022-08-16T08:03:10.779Z,99508.30
2022-08-16T08:05:42.222Z,99507.39
2022-08-16T08:08:51.590Z,99511.34
2022-08-16T08:11:17.542Z,99514.55
2022-08-16T08:13:49.643Z,99517.40
2022-08-16T08:16:30.742Z,99513.63
2022-08-16T08:19:03.870Z,99512.96
2022-08-16T08:22:01.199Z,99513.89
2022-08-16T08:24:35.068Z,99506.56
2022-08-16T08:27:09.494Z,99517.57
2022-08-16T08:29:45.850Z,99520.98
2022-08-16T08:32:58.459Z,99516.05
2022-08-16T08:35:33.428Z,99512.91
2022-08-16T08:38:09.117Z,99511.06
2022-08-16T08:40:42.038Z,99516.08
2022-08-16T08:43:18.766Z,99519.08
2022-08-16T08:45:52.459Z,99517.02
2022-08-16T08:48:32.914Z,99522.61
2022-08-16T08:51:09.546Z,99523.56
2022-08-16T08:53:41.752Z,99531.66
2022-08-16T08:56:23.398Z,99529.47
2022-08-16T08:58:58.860Z,99527.96
2022-08-16T09:01:36.751Z,99530.58
2022-08-16T09:04:17.540Z,99525.02
2022-08-16T09:06:49.235Z,99524.59
2022-08-16T09:09:20.945Z,99527.29
2022-08-16T09:12:02.855Z,99525.80
2022-08-16T09:14:38.889Z,99525.80
2022-08-16T09:17:45.332Z,99527.92
2022-08-16T09:20:16.570Z,99526.40
2022-08-16T09:22:51.359Z,99530.09
2022-08-16T09:25:25.881Z,99531.98
2022-08-16T09:28:02.819Z,99534.69
2022-08-16T09:30:43.229Z,99533.34
2022-08-16T09:33:20.011Z,99531.59
2022-08-16T09:35:54.465Z,99531.92
2022-08-16T09:38:31.998Z,99535.52
2022-08-16T09:41:06.269Z,99539.52
2022-08-16T09:43:59.554Z,99538.42
2022-08-16T09:46:45.307Z,99537.14
2022-08-16T09:49:21.122Z,99535.38
2022-08-16T09:51:55.595Z,99528.98
2022-08-16T09:54:32.742Z,99528.88
2022-08-16T09:57:04.954Z,99523.10
2022-08-16T09:59:38.375Z,99527.29
2022-08-16T10:02:27.306Z,99525.38
2022-08-16T10:05:00.695Z,99530.90
2022-08-16T10:07:44.251Z,99526.72
2022-08-16T10:10:19.092Z,99529.73
2022-08-16T10:13:16.587Z,99533.27
2022-08-16T10:15:55.196Z,99536.20
2022-08-16T10:19:02.351Z,99534.23
2022-08-16T10:21:19.340Z,99540.75
2022-08-16T10:23:54.921Z,99542.73
2022-08-16T10:27:19.126Z,99544.79
2022-08-16T10:29:19.889Z,99543.70
2022-08-16T10:31:53.817Z,99544.06
2022-08-16T10:34:32.359Z,99543.61
2022-08-16T10:37:04.641Z,99545.54
2022-08-16T10:39:41.406Z,99545.67
2022-08-16T10:42:14.423Z,99546.65
2022-08-16T10:44:46.693Z,99551.50
2022-08-16T10:47:26.693Z,99555.64
2022-08-16T10:50:03.441Z,99557.47
2022-08-16T10:58:11.446Z,99556.98
2022-08-16T11:00:46.189Z,99558.22
2022-08-16T11:06:12.145Z,99555.39
2022-08-16T11:08:47.218Z,99558.30
2022-08-16T11:11:20.053Z,99557.17
2022-08-16T11:14:11.476Z,99557.41
2022-08-16T11:20:00.648Z,99559.83
2022-08-16T11:22:47.700Z,99555.04
2022-08-16T11:29:11.906Z,99563.73
2022-08-16T11:31:06.492Z,99567.60
2022-08-16T11:33:55.035Z,99570.86
2022-08-16T11:36:28.277Z,99569.83
2022-08-16T11:39:01.626Z,99570.77
2022-08-16T11:41:38.740Z,99568.95
2022-08-16T11:44:20.391Z,99565.83
2022-08-16T11:46:52.020Z,99566.10
2022-08-16T11:49:25.154Z,99563.33
2022-08-16T11:51:56.604Z,99560.45
2022-08-16T11:54:36.168Z,99562.66
2022-08-16T11:57:09.810Z,99559.27
2022-08-16T11:59:41.428Z,99559.74
2022-08-16T12:02:32.329Z,99556.54
2022-08-16T12:05:04.570Z,99556.34
2022-08-16T12:07:36.648Z,99557.04
2022-08-16T12:10:11.349Z,99558.17
2022-08-16T12:12:43.762Z,99553.95
2022-08-16T12:15:18.270Z,99547.05
2022-08-16T12:17:50.031Z,99550.96
2022-08-16T12:20:27.612Z,99551.78
2022-08-16T12:23:01.713Z,99550.64
2022-08-16T12:25:36.350Z,99550.52
2022-08-16T12:28:10.549Z,99543.70
2022-08-16T12:30:44.024Z,99540.45
2022-08-16T12:33:25.395Z,99535.67
2022-08-16T12:35:57.672Z,99534.81
2022-08-16T12:38:40.788Z,99531.06
2022-08-16T12:41:25.284Z,99526.19
2022-08-16T12:44:01.021Z,99525.16
2022-08-16T12:46:33.733Z,99523.09
2022-08-16T12:49:06.679Z,99528.36
2022-08-16T12:51:59.315Z,99525.58
2022-08-16T12:54:33.955Z,99525.15
2022-08-16T12:57:05.281Z,99518.14
2022-08-16T12:59:45.639Z,99517.67
2022-08-16T13:02:22.714Z,99514.04
2022-08-16T13:05:07.053Z,99516.64
2022-08-16T13:07:42.575Z,99515.17
2022-08-16T13:10:21.299Z,99509.59
2022-08-16T13:13:10.261Z,99506.95
2022-08-16T13:15:55.867Z,99504.48
2022-08-16T13:18:36.281Z,99499.94
2022-08-16T13:21:06.559Z,99499.61
2022-08-16T13:23:43.624Z,99500.32
2022-08-16T13:26:17.245Z,99495.89
2022-08-16T13:28:47.857Z,99494.35
2022-08-16T13:31:19.864Z,99487.04
2022-08-16T13:33:51.375Z,99486.38
2022-08-16T13:36:47.876Z,99478.38
2022-08-16T13:39:20.860Z,99478.98
2022-08-16T13:41:55.995Z,99476.38
2022-08-16T13:44:35.949Z,99474.77
2022-08-16T13:47:19.206Z,99471.61
2022-08-16T13:49:52.669Z,99477.75
2022-08-16T13:52:29.829Z,99476.05
2022-08-16T13:55:06.440Z,99478.95
2022-08-16T13:57:53.129Z,99478.63
2022-08-16T14:00:41.474Z,99476.98
2022-08-16T14:03:13.220Z,99476.97
2022-08-16T14:05:50.120Z,99472.56
2022-08-16T14:08:26.977Z,99470.66
2022-08-16T14:11:00.251Z,99465.19
2022-08-16T14:13:32.015Z,99462.34
2022-08-16T14:16:09.992Z,99458.96
2022-08-16T14:18:55.591Z,99455.43
2022-08-16T14:21:27.912Z,99450.95
2022-08-16T14:24:22.249Z,99449.95
2022-08-16T14:27:00.333Z,99455.48
2022-08-16T14:29:38.427Z,99452.66
2022-08-16T14:32:13.271Z,99454.91
2022-08-16T14:35:00.558Z,99451.60
2022-08-16T14:37:32.729Z,99448.85
2022-08-16T14:40:06.508Z,99449.80
2022-08-16T14:42:44.143Z,99444.65
2022-08-16T14:45:18.326Z,99443.80
2022-08-16T14:47:51.637Z,99443.27
2022-08-16T14:50:30.230Z,99443.02
2022-08-16T14:53:04.867Z,99447.60
2022-08-16T14:55:41.062Z,99457.41
2022-08-16T14:58:19.165Z,99463.16
2022-08-16T15:00:52.891Z,99468.86
2022-08-16T15:03:44.558Z,99468.98
2022-08-16T15:06:16.968Z,99468.06
2022-08-16T15:08:48.697Z,99470.14
2022-08-16T15:11:22.330Z,99466.48
2022-08-16T15:13:54.601Z,99472.57
2022-08-16T15:16:28.950Z,99467.52
2022-08-16T15:19:01.023Z,99466.94
2022-08-16T15:21:33.946Z,99466.35
2022-08-16T15:24:22.522Z,99466.50
2022-08-16T15:26:58.423Z,99462.52
2022-08-16T15:29:30.516Z,99465.73
2022-08-16T15:32:02.654Z,99467.52
2022-08-16T15:34:35.354Z,99469.81
2022-08-16T15:37:07.420Z,99474.75
2022-08-16T15:39:39.812Z,99477.12
2022-08-16T15:42:15.653Z,99477.90
2022-08-16T15:44:59.335Z,99483.33
2022-08-16T15:47:33.704Z,99481.92
2022-08-16T15:50:06.535Z,99485.34
2022-08-16T15:52:41.043Z,99487.08
2022-08-16T15:55:29.649Z,99489.38
2022-08-16T15:58:35.767Z,99488.21
2022-08-16T16:00:58.034Z,99490.11
2022-08-16T16:03:34.522Z,99492.70
2022-08-16T16:06:08.625Z,99494.80
2022-08-16T16:08:41.491Z,99490.66
2022-08-16T16:11:13.378Z,99491.69
2022-08-16T16:13:45.341Z,99492.45
2022-08-16T16:16:20.757Z,99489.77
2022-08-16T16:18:52.317Z,99493.48
2022-08-16T16:21:23.947Z,99495.49
2022-08-16T16:24:01.339Z,99497.98
2022-08-16T16:26:48.657Z,99502.16
2022-08-16T16:29:20.141Z,99507.05
2022-08-16T16:31:59.727Z,99515.02
2022-08-16T16:34:35.447Z,99521.30
2022-08-16T16:37:09.946Z,99528.48
2022-08-16T16:39:42.396Z,99534.04
2022-08-16T16:42:29.321Z,99536.12
2022-08-16T16:45:03.236Z,99538.67
2022-08-16T16:47:41.647Z,99540.31
2022-08-16T16:50:16.290Z,99538.62
2022-08-16T16:52:48.476Z,99539.16
2022-08-16T16:55:25.255Z,99544.34
2022-08-16T16:58:18.083Z,99548.13
2022-08-16T17:01:06.359Z,99550.71
2022-08-16T17:03:39.053Z,99556.20
2022-08-16T17:06:10.741Z,99559.36
2022-08-16T17:08:43.371Z,99563.06
2022-08-16T17:11:16.683Z,99562.83
2022-08-16T17:13:52.870Z,99558.84
2022-08-16T17:16:33.004Z,99551.98
2022-08-16T17:19:17.301Z,99549.44
2022-08-16T17:21:52.394Z,99549.39
2022-08-16T17:24:39.254Z,99545.55
2022-08-16T17:27:50.679Z,99541.80
2022-08-16T17:30:20.812Z,99538.83
2022-08-16T17:33:06.711Z,99538.02
2022-08-16T17:35:40.685Z,99533.98
2022-08-16T17:38:38.838Z,99537.41
2022-08-16T17:41:16.629Z,99538.34
2022-08-16T17:43:48.426Z,99536.92
2022-08-16T17:46:50.683Z,99539.27
2022-08-16T17:49:14.044Z,99533.22
2022-08-16T17:51:56.597Z,99539.59
2022-08-16T17:54:37.253Z,99534.47
2022-08-16T17:57:17.108Z,99536.98
2022-08-16T17:59:55.874Z,99533.48
2022-08-16T18:05:16.618Z,99549.98
2022-08-16T18:07:48.767Z,99550.41
2022-08-16T18:10:32.658Z,99556.12
2022-08-16T18:13:05.451Z,99551.69
2022-08-16T18:15:51.925Z,99550.55
2022-08-16T18:18:31.052Z,99554.84
2022-08-16T18:21:21.461Z,99554.93
2022-08-16T18:24:22.111Z,99565.77
2022-08-16T18:26:54.276Z,99566.17
2022-08-16T18:29:30.193Z,99570.31
2022-08-16T18:32:25.383Z,99570.96
2022-08-16T18:35:00.420Z,99576.94
2022-08-16T18:37:33.675Z,99578.25
2022-08-16T18:40:05.991Z,99579.60
2022-08-16T18:42:38.132Z,99581.25
2022-08-16T18:45:11.885Z,99584.04
2022-08-16T18:47:43.424Z,99592.16
2022-08-16T18:50:14.690Z,99593.60
2022-08-16T18:52:55.309Z,99596.09
2022-08-16T18:55:36.129Z,99599.05
2022-08-16T18:58:18.723Z,99599.89
2022-08-16T19:00:56.915Z,99601.59
2022-08-16T19:03:52.158Z,99597.70
2022-08-16T19:06:22.165Z,99606.13
2022-08-16T19:08:53.650Z,99609.09
2022-08-16T19:11:28.680Z,99608.64
2022-08-16T19:14:00.240Z,99610.04
2022-08-16T19:16:31.768Z,99605.35
2022-08-16T19:19:03.982Z,99603.02
2022-08-16T19:21:35.732Z,99608.59
2022-08-16T19:24:17.565Z,99613.43
2022-08-16T19:26:49.694Z,99616.91
2022-08-16T19:29:22.306Z,99618.86
2022-08-16T19:31:54.231Z,99619.63
2022-08-16T19:34:26.812Z,99621.55
2022-08-16T19:36:58.260Z,99620.35
2022-08-16T19:39:32.683Z,99620.65
2022-08-16T19:42:13.533Z,99619.66
2022-08-16T19:44:47.168Z,99622.39
2022-08-16T19:47:21.535Z,99619.52
2022-08-16T19:49:53.685Z,99622.31
2022-08-16T19:52:30.823Z,99625.06
2022-08-16T19:55:05.830Z,99628.65
2022-08-16T19:57:43.453Z,99626.39
2022-08-16T20:00:19.774Z,99631.92
2022-08-16T20:02:55.087Z,99627.97
2022-08-16T20:05:32.261Z,99628.29
2022-08-16T20:08:05.164Z,99620.27
2022-08-16T20:10:37.162Z,99624.69
2022-08-16T20:13:15.466Z,99624.87
2022-08-16T20:15:48.401Z,99622.83
2022-08-16T20:18:25.355Z,99623.40
2022-08-16T20:20:57.997Z,99622.55
2022-08-16T20:23:29.626Z,99627.54
2022-08-16T20:26:01.736Z,99635.23
2022-08-16T20:28:53.126Z,99629.85
2022-08-16T20:31:24.675Z,99632.05
2022-08-16T20:33:56.788Z,99636.94
2022-08-16T20:36:28.352Z,99630.55
2022-08-16T20:39:00.491Z,99633.15
2022-08-16T20:41:32.747Z,99632.42
2022-08-16T20:44:04.216Z,99629.64
2022-08-16T20:46:39.138Z,99628.44
2022-08-16T20:49:11.809Z,99626.39
2022-08-16T20:51:49.015Z,99631.86
2022-08-16T20:54:22.911Z,99626.60
2022-08-16T20:56:54.365Z,99626.02
2022-08-16T20:59:25.873Z,99626.25
2022-08-16T21:01:57.451Z,99624.45
2022-08-16T21:04:31.034Z,99626.36
2022-08-16T21:07:03.562Z,99630.55
2022-08-16T21:09:37.557Z,99627.45
2022-08-16T21:12:18.062Z,99627.63
2022-08-16T21:14:50.640Z,99626.92
2022-08-16T21:17:22.168Z,99625.10
2022-08-16T21:19:54.793Z,99622.71
2022-08-16T21:22:27.301Z,99625.02
2022-08-16T21:25:00.308Z,99624.34
2022-08-16T21:27:34.132Z,99631.42
2022-08-16T21:30:12.420Z,99633.58
2022-08-16T21:32:47.951Z,99629.17
2022-08-16T21:35:20.499Z,99626.13
2022-08-16T21:38:00.159Z,99623.75
2022-08-16T21:40:49.318Z,99631.31
2022-08-16T21:43:24.486Z,99630.95
2022-08-16T21:45:56.450Z,99627.58
2022-08-16T21:48:34.682Z,99629.33
2022-08-16T21:51:10.709Z,99624.62
2022-08-16T21:53:43.200Z,99632.38
2022-08-16T21:56:17.238Z,99631.92
2022-08-16T21:58:53.387Z,99633.03
2022-08-16T22:01:25.397Z,99635.95
2022-08-16T22:04:01.562Z,99638.32
2022-08-16T22:06:48.526Z,99642.77
2022-08-16T22:09:19.807Z,99641.92
2022-08-16T22:11:51.383Z,99643.52
2022-08-16T22:14:22.778Z,99645.48
2022-08-16T22:16:55.979Z,99643.84
2022-08-16T22:19:28.728Z,99645.66
2022-08-16T22:22:01.383Z,99642.21
2022-08-16T22:24:32.780Z,99638.66
2022-08-16T22:27:04.516Z,99636.11
2022-08-16T22:29:35.904Z,99631.02
2022-08-16T22:32:11.766Z,99642.15
2022-08-16T22:34:43.106Z,99639.17
2022-08-16T22:37:14.382Z,99640.30
2022-08-16T22:39:45.735Z,99638.27
2022-08-16T22:42:18.344Z,99635.63
2022-08-16T22:44:49.924Z,99632.61
2022-08-16T22:47:21.567Z,99630.70
2022-08-16T22:49:53.222Z,99626.98
2022-08-16T22:52:41.070Z,99622.52
2022-08-16T22:55:17.198Z,99622.90
2022-08-16T22:57:49.081Z,99622.86
2022-08-16T23:00:22.938Z,99620.52
2022-08-16T23:03:03.085Z,99622.21
2022-08-16T23:05:37.249Z,99621.69
2022-08-16T23:08:14.127Z,99623.64
2022-08-16T23:11:03.980Z,99617.60
2022-08-16T23:13:35.746Z,99613.30
2022-08-16T23:16:11.370Z,99616.52
2022-08-16T23:18:43.206Z,99616.27
2022-08-16T23:21:14.653Z,99621.31
2022-08-16T23:23:46.799Z,99620.61
2022-08-16T23:26:44.499Z,99620.70
2022-08-16T23:29:22.089Z,99622.81
2022-08-16T23:31:59.204Z,99618.95
2022-08-16T23:34:31.462Z,99612.53
2022-08-16T23:37:03.146Z,99613.80
2022-08-16T23:39:36.198Z,99608.46
2022-08-16T23:42:15.598Z,99606.92
2022-08-16T23:45:07.625Z,99610.34
2022-08-16T23:47:38.903Z,99609.91
2022-08-16T23:50:12.554Z,99606.52
2022-08-16T23:53:01.330Z,99605.45
2022-08-16T23:55:34.262Z,99600.73
2022-08-16T23:58:05.768Z,99603.23
